John M. Rivers (jr) — WDB8997 — position and weather

sailwx.info

Track history (hours):
 
Tides and Currents Weather Stations Pressure Air Temp Water Temp Dewpoint Dewpoint Depression Visibility Wind Speed Wind Dir Waves Ship Positions

John M. Rivers (jr)

Owner: INGRAM BARGE COMPANY, Nashville, TN. More information available from US FCC via Universal Licensing System and Coast Guard Vessel Documentation Center.

Last reported at 2016-May-29 09:29 UTC. Time now 2016-May-30 14:37 UTC.
Position N 41°31' W 090°32'.

Length 41 m; draft 9 m.

Type: Towing. MMSI: 366967620.

Date/timePositionNaut miles runAvg speedWind from/ knotsBaromVisibWave heightAir tempDewpointWater temp
2016-May-29 09:29N 41°31' W 090°32'0 0.3
2016-May-29 08:33N 41°32' W 090°32'0 0.0
2016-May-29 07:30N 41°32' W 090°32'0 0.0
2016-May-29 06:33N 41°32' W 090°32'1 1.4
2016-May-29 05:33N 41°31' W 090°34'0 0.1
2016-May-29 04:07N 41°31' W 090°34'  
2016-May-25 10:32N 41°30' W 090°36'2 2.1
2016-May-25 09:33N 41°31' W 090°34'0 0.4
2016-May-25 08:33N 41°31' W 090°33'1 1.1
2016-May-25 07:31N 41°32' W 090°32'0 0.0
2016-May-25 06:33N 41°32' W 090°32'0 0.0
2016-May-25 05:30N 41°32' W 090°32'0 0.0
2016-May-25 04:28N 41°32' W 090°32'0 0.0
2016-May-25 03:20N 41°32' W 090°32'0 0.0
2016-May-25 02:30N 41°32' W 090°32'0 0.0
2016-May-25 01:04N 41°32' W 090°32'0 0.0
2016-May-25 00:24N 41°32' W 090°32'0 0.0
2016-May-24 21:33N 41°32' W 090°32'0 0.0
2016-May-24 19:08N 41°32' W 090°32'  
2016-May-20 04:23N 41°31' W 090°29'2 3.0
2016-May-20 03:33N 41°32' W 090°33'1 1.0
2016-May-20 02:32N 41°31' W 090°34'0 0.1
2016-May-20 01:32N 41°31' W 090°34'  
Track history (hours):
 
Tides and Currents Weather Stations Pressure Air Temp Water Temp Dewpoint Dewpoint Depression Visibility Wind Speed Wind Dir Waves Ship Positions

John M. Rivers (jr)

Owner: INGRAM BARGE COMPANY, Nashville, TN. More information available from US FCC via Universal Licensing System and Coast Guard Vessel Documentation Center.

Last reported at 2016-May-29 09:29 UTC. Time now 2016-May-30 14:37 UTC.
Position N 41°31' W 090°32'.

Length 41 m; draft 9 m.

Type: Towing. MMSI: 366967620.

Date/timePositionNaut miles runAvg speedWind from/ knotsBaromVisibWave heightAir tempDewpointWater temp
2016-May-29 09:29N 41°31' W 090°32'0 0.3
2016-May-29 08:33N 41°32' W 090°32'0 0.0
2016-May-29 07:30N 41°32' W 090°32'0 0.0
2016-May-29 06:33N 41°32' W 090°32'1 1.4
2016-May-29 05:33N 41°31' W 090°34'0 0.1
2016-May-29 04:07N 41°31' W 090°34'  
2016-May-25 10:32N 41°30' W 090°36'2 2.1
2016-May-25 09:33N 41°31' W 090°34'0 0.4
2016-May-25 08:33N 41°31' W 090°33'1 1.1
2016-May-25 07:31N 41°32' W 090°32'0 0.0
2016-May-25 06:33N 41°32' W 090°32'0 0.0
2016-May-25 05:30N 41°32' W 090°32'0 0.0
2016-May-25 04:28N 41°32' W 090°32'0 0.0
2016-May-25 03:20N 41°32' W 090°32'0 0.0
2016-May-25 02:30N 41°32' W 090°32'0 0.0
2016-May-25 01:04N 41°32' W 090°32'0 0.0
2016-May-25 00:24N 41°32' W 090°32'0 0.0
2016-May-24 21:33N 41°32' W 090°32'0 0.0
2016-May-24 19:08N 41°32' W 090°32'  
2016-May-20 04:23N 41°31' W 090°29'2 3.0
2016-May-20 03:33N 41°32' W 090°33'1 1.0
2016-May-20 02:32N 41°31' W 090°34'0 0.1
2016-May-20 01:32N 41°31' W 090°34'  

Dump ship's entire track history